Time;durP1;ratioP1;P1;durP2;ratioP2;P2;SDS_P1;SDS_P2;PMS_P1;PMS_P2;Temp;Humidity;BMP_temperature;BMP_pressure;BME280_temperature;BME280_humidity;BME280_pressure;Samples;Min_cycle;Max_cycle;Signal;HPM_P1;HPM_P2
2023/01/16 00:01:07;;;;;;;;;;;16.50;64.20;;;;;;10376950;28;93483;-61
2023/01/16 00:06:08;;;;;;;;;;;16.50;64.10;;;;;;10375425;28;94097;-61
2023/01/16 00:11:10;;;;;;;;;;;16.50;64.20;;;;;;10377194;28;94101;-61
2023/01/16 00:16:13;;;;;;;;;;;16.50;64.20;;;;;;10376283;28;93621;-61
2023/01/16 00:21:15;;;;;;;;;;;16.50;64.10;;;;;;10375262;28;93384;-61
2023/01/16 00:26:17;;;;;;;;;;;16.40;64.00;;;;;;10376436;28;92265;-61
2023/01/16 00:31:19;;;;;;;;;;;16.40;64.00;;;;;;10374248;28;92823;-61
2023/01/16 00:36:21;;;;;;;;;;;16.40;64.00;;;;;;10376342;28;94571;-61
2023/01/16 00:41:23;;;;;;;;;;;16.40;64.10;;;;;;10373320;28;96066;-61
2023/01/16 00:46:25;;;;;;;;;;;16.40;64.00;;;;;;10375383;28;93415;-61
2023/01/16 00:51:27;;;;;;;;;;;16.30;64.00;;;;;;10375470;28;94454;-62
2023/01/16 00:56:29;;;;;;;;;;;16.30;64.00;;;;;;10376663;28;94357;-62
2023/01/16 01:01:30;;;;;;;;;;;16.30;63.90;;;;;;10374791;28;93712;-62
2023/01/16 01:06:33;;;;;;;;;;;16.30;64.00;;;;;;10373652;28;93462;-61
2023/01/16 01:11:34;;;;;;;;;;;16.30;63.90;;;;;;10375975;28;93293;-61
2023/01/16 01:16:36;;;;;;;;;;;16.30;64.00;;;;;;10374917;28;93494;-62
2023/01/16 01:21:38;;;;;;;;;;;16.30;63.90;;;;;;10374344;28;93484;-61
2023/01/16 01:26:40;;;;;;;;;;;16.30;63.80;;;;;;10373893;28;92582;-61
2023/01/16 01:31:42;;;;;;;;;;;16.30;63.80;;;;;;10372233;28;95905;-61
2023/01/16 01:36:44;;;;;;;;;;;16.20;63.70;;;;;;10374169;28;93577;-61
2023/01/16 01:41:45;;;;;;;;;;;16.20;63.80;;;;;;10374244;28;93501;-61
2023/01/16 01:46:47;;;;;;;;;;;16.20;63.70;;;;;;10373550;28;93648;-61
2023/01/16 01:51:51;;;;;;;;;;;16.20;63.70;;;;;;10373611;28;94201;-61
2023/01/16 01:57:13;;;;;;;;;;;16.20;63.70;;;;;;10373713;28;93470;-61
2023/01/16 02:07:20;;;;;;;;;;;16.20;63.80;;;;;;10328971;28;92343;-60
2023/01/16 02:12:22;;;;;;;;;;;16.10;63.70;;;;;;10331374;28;93322;-60
2023/01/16 02:23:02;;;;;;;;;;;16.10;63.80;;;;;;10328817;28;96802;-61
2023/01/16 02:28:22;;;;;;;;;;;16.10;63.70;;;;;;10331967;28;93440;-61
2023/01/16 02:33:42;;;;;;;;;;;16.10;63.70;;;;;;10332020;28;93543;-61
2023/01/16 02:38:59;;;;;;;;;;;16.10;63.80;;;;;;10331485;28;93470;-61
2023/01/16 02:44:08;;;;;;;;;;;16.10;63.80;;;;;;10331277;28;94446;-61
2023/01/16 02:49:16;;;;;;;;;;;16.10;63.70;;;;;;10328828;28;92984;-61
2023/01/16 02:54:24;;;;;;;;;;;16.00;63.70;;;;;;10329524;28;94434;-61
2023/01/16 02:59:27;;;;;;;;;;;16.00;63.70;;;;;;10331539;28;93830;-61
2023/01/16 03:04:38;;;;;;;;;;;16.00;63.70;;;;;;10329418;28;93436;-61
2023/01/16 03:09:55;;;;;;;;;;;16.00;63.60;;;;;;10330659;28;94810;-61
2023/01/16 03:14:59;;;;;;;;;;;16.00;63.70;;;;;;10326962;28;95247;-61
2023/01/16 03:20:04;;;;;;;;;;;16.00;63.60;;;;;;10329711;28;93413;-61
2023/01/16 03:25:05;;;;;;;;;;;16.00;63.60;;;;;;10328618;28;94351;-61
2023/01/16 03:30:13;;;;;;;;;;;16.00;63.60;;;;;;10329994;28;93873;-61
2023/01/16 03:35:17;;;;;;;;;;;16.00;63.70;;;;;;10329086;28;93622;-61
2023/01/16 03:40:22;;;;;;;;;;;15.90;63.50;;;;;;10327155;28;94390;-61
2023/01/16 03:45:39;;;;;;;;;;;15.90;63.50;;;;;;10329329;28;94469;-61
2023/01/16 03:50:44;;;;;;;;;;;15.90;63.50;;;;;;10330157;28;96227;-62
2023/01/16 03:55:55;;;;;;;;;;;15.90;63.50;;;;;;10326698;28;93452;-61
2023/01/16 04:01:15;;;;;;;;;;;15.90;63.50;;;;;;10328022;28;94879;-61
2023/01/16 04:06:19;;;;;;;;;;;15.90;63.40;;;;;;10325833;28;95896;-61
2023/01/16 04:11:22;;;;;;;;;;;15.90;63.40;;;;;;10327599;28;93212;-61
2023/01/16 04:16:24;;;;;;;;;;;15.90;63.40;;;;;;10328796;28;94422;-61
2023/01/16 04:21:27;;;;;;;;;;;15.90;63.40;;;;;;10327465;28;93274;-61
2023/01/16 04:26:29;;;;;;;;;;;15.90;63.30;;;;;;10328149;28;93732;-60
2023/01/16 04:31:30;;;;;;;;;;;15.80;63.20;;;;;;10329188;28;93439;-60
2023/01/16 04:36:32;;;;;;;;;;;15.90;63.30;;;;;;10334698;28;93563;-61
2023/01/16 04:41:37;;;;;;;;;;;15.80;63.20;;;;;;10333891;28;94075;-61
2023/01/16 06:04:06;;;;;;;;;;;16.10;62.40;;;;;;10287729;28;95400;-61
2023/01/16 06:09:08;;;;;;;;;;;16.30;61.70;;;;;;10331572;28;93629;-61
2023/01/16 06:14:09;;;;;;;;;;;16.40;61.50;;;;;;10332004;28;94259;-61
2023/01/16 06:19:11;;;;;;;;;;;16.40;62.40;;;;;;10330273;28;93604;-61
2023/01/16 06:24:13;;;;;;;;;;;16.50;61.30;;;;;;10330619;28;93447;-61
2023/01/16 06:29:15;;;;;;;;;;;16.40;61.30;;;;;;10329911;28;94481;-61
2023/01/16 06:34:17;;;;;;;;;;;16.40;61.30;;;;;;10331361;28;94477;-62
2023/01/16 06:39:19;;;;;;;;;;;16.40;61.50;;;;;;10330646;28;93514;-64
2023/01/16 06:44:21;;;;;;;;;;;16.40;61.70;;;;;;10330384;28;93579;-62
2023/01/16 06:49:22;;;;;;;;;;;16.40;62.70;;;;;;10331681;28;94446;-62
2023/01/16 06:54:24;;;;;;;;;;;16.40;62.30;;;;;;10326034;28;95654;-62
2023/01/16 06:59:26;;;;;;;;;;;16.40;62.10;;;;;;10329647;28;93516;-62
2023/01/16 07:04:28;;;;;;;;;;;16.40;62.30;;;;;;10329540;28;93462;-61
2023/01/16 07:09:29;;;;;;;;;;;16.40;62.80;;;;;;10329518;28;93626;-60
2023/01/16 07:25:18;;;;;;;;;;;16.40;63.70;;;;;;10329603;28;94398;-62
2023/01/16 07:30:20;;;;;;;;;;;16.30;63.80;;;;;;10329219;28;92881;-62
2023/01/16 07:35:22;;;;;;;;;;;16.30;63.20;;;;;;10327685;28;92796;-62
2023/01/16 07:40:23;;;;;;;;;;;16.30;63.20;;;;;;10329071;28;93617;-62
2023/01/16 07:45:25;;;;;;;;;;;16.20;63.20;;;;;;10326369;28;96068;-62
2023/01/16 07:50:27;;;;;;;;;;;16.20;63.10;;;;;;10329264;28;94415;-62
2023/01/16 07:55:29;;;;;;;;;;;16.10;63.00;;;;;;10328529;28;93642;-62
2023/01/16 08:00:31;;;;;;;;;;;16.10;63.10;;;;;;10328593;28;94607;-62
2023/01/16 08:05:33;;;;;;;;;;;16.10;63.10;;;;;;10326904;28;93622;-62
2023/01/16 08:10:34;;;;;;;;;;;16.00;63.10;;;;;;10333105;28;92819;-62
2023/01/16 08:15:36;;;;;;;;;;;16.00;63.20;;;;;;10336874;28;94337;-62
2023/01/16 08:20:38;;;;;;;;;;;15.90;63.30;;;;;;10319291;28;93777;-62
2023/01/16 08:25:40;;;;;;;;;;;15.90;63.40;;;;;;10335323;28;94248;-62
2023/01/16 08:30:42;;;;;;;;;;;15.90;63.20;;;;;;10317019;28;93826;-62
2023/01/16 08:35:44;;;;;;;;;;;15.80;63.20;;;;;;10332133;28;95818;-62
2023/01/16 08:40:45;;;;;;;;;;;15.80;63.40;;;;;;10330125;28;94533;-62
2023/01/16 08:51:21;;;;;;;;;;;15.80;63.40;;;;;;10333026;28;93433;-62
2023/01/16 08:51:27;;;;;;;;;;;15.80;63.40;;;;;;10333712;28;93433;-62
2023/01/16 08:56:29;;;;;;;;;;;15.70;63.50;;;;;;10334211;28;94478;-62
2023/01/16 09:01:31;;;;;;;;;;;15.70;63.50;;;;;;10334046;28;93075;-62
2023/01/16 09:06:35;;;;;;;;;;;15.70;63.50;;;;;;10331647;28;92950;-62
2023/01/16 09:16:57;;;;;;;;;;;15.60;63.70;;;;;;10333747;28;93416;-62
2023/01/16 09:22:01;;;;;;;;;;;15.60;63.70;;;;;;10333622;28;92705;-62
2023/01/16 09:27:03;;;;;;;;;;;15.60;63.60;;;;;;10330567;28;96203;-62
2023/01/16 09:32:08;;;;;;;;;;;15.60;63.70;;;;;;10332510;28;93542;-62
2023/01/16 09:37:13;;;;;;;;;;;15.60;63.70;;;;;;10333764;28;93854;-62
2023/01/16 09:47:40;;;;;;;;;;;15.60;63.70;;;;;;10332388;28;94384;-62
2023/01/16 10:03:29;;;;;;;;;;;15.50;63.60;;;;;;10332592;28;94244;-62
2023/01/16 10:08:40;;;;;;;;;;;15.60;63.70;;;;;;10331729;28;93534;-62
2023/01/16 10:13:44;;;;;;;;;;;15.50;63.60;;;;;;10331810;28;94441;-62
2023/01/16 10:18:58;;;;;;;;;;;15.50;63.50;;;;;;10328979;28;96846;-62
2023/01/16 10:24:21;;;;;;;;;;;15.50;63.50;;;;;;10330542;28;95140;-62
2023/01/16 10:29:30;;;;;;;;;;;15.50;63.60;;;;;;10331457;28;93882;-62
2023/01/16 10:34:35;;;;;;;;;;;15.50;63.50;;;;;;10330881;28;93565;-62
2023/01/16 10:39:39;;;;;;;;;;;15.50;64.60;;;;;;10330108;28;93517;-62
2023/01/16 10:50:22;;;;;;;;;;;15.50;63.60;;;;;;10329632;28;93433;-62
2023/01/16 10:55:39;;;;;;;;;;;15.50;63.60;;;;;;10331752;28;92695;-61
2023/01/16 11:00:41;;;;;;;;;;;15.40;63.50;;;;;;10329723;28;93738;-62
2023/01/16 11:05:43;;;;;;;;;;;15.40;63.50;;;;;;10329065;28;94466;-62
2023/01/16 11:10:46;;;;;;;;;;;15.40;63.60;;;;;;10327994;28;95883;-62
2023/01/16 11:18:28;;;;;;;;;;;15.40;63.60;;;;;;10329101;28;94262;-62
2023/01/16 11:21:30;;;;;;;;;;;15.40;63.50;;;;;;10329976;28;93599;-62
2023/01/16 11:26:32;;;;;;;;;;;15.40;63.60;;;;;;10329279;28;94810;-62
2023/01/16 11:31:34;;;;;;;;;;;15.40;63.60;;;;;;10330545;28;94538;-62
2023/01/16 11:36:37;;;;;;;;;;;15.40;63.60;;;;;;10330229;28;95247;-62
2023/01/16 11:41:38;;;;;;;;;;;15.40;63.50;;;;;;10328605;28;94436;-62
2023/01/16 11:46:41;;;;;;;;;;;15.40;63.60;;;;;;10336746;28;92761;-63
2023/01/16 11:51:42;;;;;;;;;;;15.40;63.50;;;;;;10336720;28;93580;-62
2023/01/16 11:57:02;;;;;;;;;;;15.30;63.40;;;;;;10335709;28;93730;-62
2023/01/16 12:02:16;;;;;;;;;;;15.30;63.50;;;;;;10332402;28;96054;-62
2023/01/16 12:07:22;;;;;;;;;;;15.30;63.40;;;;;;10335382;28;94704;-61
2023/01/16 12:18:00;;;;;;;;;;;15.30;63.30;;;;;;10335231;28;93222;-62
2023/01/16 12:23:21;;;;;;;;;;;15.30;63.40;;;;;;10335693;28;94713;-62
2023/01/16 12:28:22;;;;;;;;;;;15.30;63.30;;;;;;10335509;28;93457;-62
2023/01/16 12:33:38;;;;;;;;;;;15.30;63.40;;;;;;10334062;28;93531;-59
2023/01/16 12:38:48;;;;;;;;;;;15.20;63.30;;;;;;10334978;28;93718;-62
2023/01/16 12:43:53;;;;;;;;;;;15.30;63.40;;;;;;10334173;28;93235;-62
2023/01/16 12:49:00;;;;;;;;;;;15.30;63.20;;;;;;10333698;28;93303;-62
2023/01/16 12:54:07;;;;;;;;;;;15.30;63.20;;;;;;10330928;28;95809;-62
2023/01/16 12:59:30;;;;;;;;;;;15.30;63.20;;;;;;10334049;28;93876;-62
2023/01/16 13:04:36;;;;;;;;;;;15.20;63.10;;;;;;10333809;28;93652;-62
2023/01/16 13:09:41;;;;;;;;;;;15.20;63.20;;;;;;10333214;28;94473;-62
2023/01/16 13:14:45;;;;;;;;;;;15.20;63.10;;;;;;10332796;28;94111;-61
2023/01/16 13:19:49;;;;;;;;;;;15.20;63.10;;;;;;10333343;28;92852;-62
2023/01/16 13:25:14;;;;;;;;;;;15.20;63.10;;;;;;10333024;28;93482;-62
2023/01/16 13:30:17;;;;;;;;;;;15.20;63.20;;;;;;10332259;28;93674;-63
2023/01/16 13:35:21;;;;;;;;;;;15.20;63.20;;;;;;10333546;28;95178;-62
2023/01/16 13:40:23;;;;;;;;;;;15.20;63.10;;;;;;10332799;28;94438;-62
2023/01/16 13:45:50;;;;;;;;;;;15.10;63.10;;;;;;10329763;28;96910;-62
2023/01/16 13:50:58;;;;;;;;;;;15.20;63.20;;;;;;10332314;28;94826;-62
2023/01/16 13:56:04;;;;;;;;;;;15.20;63.30;;;;;;10332771;28;93639;-62
2023/01/16 14:01:28;;;;;;;;;;;15.10;63.20;;;;;;10332486;28;94536;-62
2023/01/16 14:06:41;;;;;;;;;;;15.10;63.20;;;;;;10329250;28;94459;-62
2023/01/16 14:12:01;;;;;;;;;;;15.10;63.10;;;;;;10332491;28;93510;-62
2023/01/16 14:17:02;;;;;;;;;;;15.10;63.10;;;;;;10331431;28;93633;-61
2023/01/16 14:27:13;;;;;;;;;;;15.10;63.10;;;;;;10331756;28;94300;-62
2023/01/16 14:32:19;;;;;;;;;;;15.10;63.20;;;;;;10331613;28;93320;-62
2023/01/16 14:37:30;;;;;;;;;;;15.10;63.10;;;;;;10327719;28;96020;-62
2023/01/16 14:58:52;;;;;;;;;;;15.10;63.20;;;;;;10330210;28;94241;-62
2023/01/16 15:03:54;;;;;;;;;;;15.00;63.10;;;;;;10329146;28;94544;-61
2023/01/16 15:08:56;;;;;;;;;;;15.10;63.30;;;;;;10330664;28;94029;-60
2023/01/16 15:14:26;;;;;;;;;;;15.00;63.20;;;;;;10330408;28;92685;-62
2023/01/16 15:24:52;;;;;;;;;;;15.00;63.20;;;;;;10329151;28;93698;-62
2023/01/16 15:30:00;;;;;;;;;;;15.00;63.20;;;;;;10327479;28;96876;-62
2023/01/16 15:35:10;;;;;;;;;;;15.00;63.20;;;;;;10330027;28;93469;-62
2023/01/16 15:40:20;;;;;;;;;;;15.00;63.20;;;;;;10328560;28;94470;-62
2023/01/16 15:50:55;;;;;;;;;;;14.90;63.10;;;;;;10328725;28;93575;-62
2023/01/16 15:56:04;;;;;;;;;;;15.00;63.20;;;;;;10328726;28;93483;-62
2023/01/16 16:01:06;;;;;;;;;;;14.90;63.20;;;;;;10329617;28;94233;-62
2023/01/16 16:06:09;;;;;;;;;;;14.90;63.10;;;;;;10327106;28;92286;-62
2023/01/16 16:27:43;;;;;;;;;;;14.90;63.20;;;;;;10327845;28;93618;-62
2023/01/16 16:32:45;;;;;;;;;;;14.90;63.20;;;;;;10334596;28;93435;-62
2023/01/16 16:37:46;;;;;;;;;;;14.90;63.20;;;;;;10334519;28;93599;-62
2023/01/16 16:42:52;;;;;;;;;;;14.90;63.20;;;;;;10334855;28;94545;-62
2023/01/16 16:48:19;;;;;;;;;;;14.90;63.30;;;;;;10334883;28;94759;-62
2023/01/16 16:53:24;;;;;;;;;;;14.90;63.20;;;;;;10332879;28;93627;-62
2023/01/16 16:58:27;;;;;;;;;;;15.10;63.10;;;;;;10335066;28;92627;-63
2023/01/16 17:03:30;;;;;;;;;;;15.30;62.80;;;;;;10333580;28;94601;-62
2023/01/16 17:08:31;;;;;;;;;;;15.50;62.40;;;;;;10333571;28;94009;-62
2023/01/16 17:13:33;;;;;;;;;;;15.70;62.00;;;;;;10331330;28;95898;-62
2023/01/16 17:18:35;;;;;;;;;;;15.90;61.70;;;;;;10330464;28;93498;-62
2023/01/16 17:23:37;;;;;;;;;;;16.10;61.40;;;;;;10332661;28;93320;-62
2023/01/16 17:28:39;;;;;;;;;;;16.30;61.10;;;;;;10323111;28;93415;-62
2023/01/16 17:33:41;;;;;;;;;;;16.40;60.80;;;;;;10333241;28;93345;-62
2023/01/16 17:38:43;;;;;;;;;;;16.50;60.50;;;;;;10331342;28;93474;-62
2023/01/16 17:49:05;;;;;;;;;;;16.80;60.00;;;;;;10332741;28;93585;-62
2023/01/16 17:54:07;;;;;;;;;;;16.90;59.90;;;;;;10333167;28;95791;-62
2023/01/16 17:59:09;;;;;;;;;;;16.90;59.80;;;;;;10330772;28;93401;-62
2023/01/16 18:04:13;;;;;;;;;;;16.90;59.90;;;;;;10328350;28;95760;-62
2023/01/16 18:09:15;;;;;;;;;;;17.00;59.90;;;;;;10329342;28;93503;-62
2023/01/16 18:20:01;;;;;;;;;;;17.20;60.70;;;;;;10230760;28;93401;-62
2023/01/16 18:25:03;;;;;;;;;;;17.30;60.60;;;;;;10309796;28;94580;-62
2023/01/16 18:30:05;;;;;;;;;;;17.30;60.40;;;;;;10329245;28;94483;-62
2023/01/16 18:35:07;;;;;;;;;;;17.30;60.30;;;;;;10328271;28;93941;-62
2023/01/16 19:02:00;;;;;;;;;;;17.40;60.30;;;;;;10326745;28;93402;-62
2023/01/16 19:07:44;;;;;;;;;;;17.40;60.10;;;;;;10496308;27;86986;-59
2023/01/16 19:12:46;;;;;;;;;;;17.40;60.00;;;;;;10496475;27;88819;-60
2023/01/16 19:17:48;;;;;;;;;;;17.30;60.00;;;;;;10495440;27;88588;-61
2023/01/16 19:22:51;;;;;;;;;;;17.30;60.20;;;;;;10494220;27;86958;-60
2023/01/16 19:27:53;;;;;;;;;;;17.30;60.20;;;;;;10493070;27;87469;-61
2023/01/16 19:32:55;;;;;;;;;;;17.40;60.00;;;;;;10493319;27;87038;-60
2023/01/16 19:37:57;;;;;;;;;;;17.50;60.00;;;;;;10495125;27;87206;-60
2023/01/16 19:48:19;;;;;;;;;;;17.50;59.90;;;;;;10494126;27;88508;-60
2023/01/16 19:53:21;;;;;;;;;;;17.40;59.80;;;;;;10492956;27;88777;-59
2023/01/16 19:58:23;;;;;;;;;;;17.40;60.00;;;;;;10492514;27;88317;-59
2023/01/16 20:03:24;;;;;;;;;;;17.40;60.00;;;;;;10493019;27;87748;-60
2023/01/16 20:08:26;;;;;;;;;;;17.50;59.90;;;;;;10493372;27;87537;-60
2023/01/16 20:13:28;;;;;;;;;;;17.50;59.70;;;;;;10494560;27;88107;-60
2023/01/16 20:18:30;;;;;;;;;;;17.50;59.60;;;;;;10467765;27;87320;-60
2023/01/16 20:23:32;;;;;;;;;;;17.50;59.90;;;;;;10465087;27;87477;-60
2023/01/16 20:28:36;;;;;;;;;;;17.40;60.00;;;;;;10465294;27;87434;-60
2023/01/16 20:33:38;;;;;;;;;;;17.40;60.20;;;;;;10462925;27;88336;-60
2023/01/16 20:38:43;;;;;;;;;;;17.50;60.30;;;;;;10464736;27;87485;-62
2023/01/16 20:49:05;;;;;;;;;;;17.60;60.20;;;;;;10465355;27;87526;-60
2023/01/16 20:54:07;;;;;;;;;;;17.70;60.10;;;;;;10464417;27;87653;-60
2023/01/16 20:59:09;;;;;;;;;;;17.60;60.20;;;;;;10464530;27;87704;-61
2023/01/16 21:04:15;;;;;;;;;;;17.60;60.30;;;;;;10465184;27;87635;-60
2023/01/16 21:09:17;;;;;;;;;;;17.60;61.40;;;;;;10464327;27;88457;-61
2023/01/16 21:14:19;;;;;;;;;;;17.60;60.70;;;;;;10464172;27;87160;-61
2023/01/16 21:24:41;;;;;;;;;;;17.60;60.40;;;;;;10464902;27;87212;-61
2023/01/16 21:29:43;;;;;;;;;;;17.50;60.30;;;;;;10462115;27;87374;-61
2023/01/16 21:34:45;;;;;;;;;;;17.40;60.40;;;;;;10462155;27;87492;-60
2023/01/16 21:39:48;;;;;;;;;;;17.30;60.50;;;;;;10462968;27;87702;-61
2023/01/16 21:50:10;;;;;;;;;;;17.10;60.70;;;;;;10461040;27;88721;-61
2023/01/16 21:55:12;;;;;;;;;;;17.00;60.90;;;;;;10461894;27;87840;-60
2023/01/16 22:00:14;;;;;;;;;;;16.90;61.00;;;;;;10460371;27;87583;-61
2023/01/16 22:05:16;;;;;;;;;;;16.80;61.10;;;;;;10459326;27;88909;-61
2023/01/16 22:10:20;;;;;;;;;;;16.70;61.30;;;;;;10461676;27;88454;-61
2023/01/16 22:20:54;;;;;;;;;;;16.60;61.50;;;;;;10461823;27;87369;-61
2023/01/16 22:25:58;;;;;;;;;;;16.50;61.70;;;;;;10460191;27;88312;-60
2023/01/16 22:31:03;;;;;;;;;;;16.50;61.80;;;;;;10460355;27;88901;-60
2023/01/16 22:36:08;;;;;;;;;;;16.40;61.90;;;;;;10460043;27;86924;-60
2023/01/16 22:41:15;;;;;;;;;;;16.30;62.20;;;;;;10460277;27;88888;-60
2023/01/16 22:46:23;;;;;;;;;;;16.30;62.50;;;;;;10459195;27;87859;-60
2023/01/16 22:51:26;;;;;;;;;;;16.20;62.70;;;;;;10460365;27;88208;-61
2023/01/16 22:56:28;;;;;;;;;;;16.20;62.50;;;;;;10459861;27;87480;-60
2023/01/16 23:01:29;;;;;;;;;;;16.10;62.50;;;;;;10460126;27;88331;-60
2023/01/16 23:06:31;;;;;;;;;;;16.10;62.50;;;;;;10457243;27;88519;-60
2023/01/16 23:11:42;;;;;;;;;;;16.00;62.30;;;;;;10460439;27;87559;-61
2023/01/16 23:16:46;;;;;;;;;;;16.00;62.30;;;;;;10460767;27;88378;-61
2023/01/16 23:21:49;;;;;;;;;;;16.00;62.40;;;;;;10460118;27;87550;-61
2023/01/16 23:26:52;;;;;;;;;;;15.90;62.50;;;;;;10458710;27;87404;-61
2023/01/16 23:31:54;;;;;;;;;;;15.90;62.40;;;;;;10459704;27;87165;-61
2023/01/16 23:36:56;;;;;;;;;;;15.80;62.40;;;;;;10458654;27;88322;-61
2023/01/16 23:47:20;;;;;;;;;;;15.80;62.60;;;;;;10460021;27;88522;-61
2023/01/16 23:52:26;;;;;;;;;;;15.70;62.50;;;;;;10463356;27;88495;-61
2023/01/16 23:57:28;;;;;;;;;;;15.70;62.60;;;;;;10465605;27;88539;-61
